sensor_id;sensor_type;location;lat;lon;timestamp;pressure;altitude;pressure_sealevel;temperature;humidity
63190;BME280;49286;44.460;26.114;2024-02-16T00:00:12;101363.88;;;7.24;100.00
63190;BME280;49286;44.460;26.114;2024-02-16T00:02:39;101290.16;;;6.43;100.00
63190;BME280;49286;44.460;26.114;2024-02-16T00:05:06;101388.94;;;6.88;100.00
63190;BME280;49286;44.460;26.114;2024-02-16T00:07:35;101276.88;;;6.63;100.00
63190;BME280;49286;44.460;26.114;2024-02-16T00:10:01;101372.97;;;7.38;100.00
63190;BME280;49286;44.460;26.114;2024-02-16T00:12:27;101387.50;;;7.28;100.00
63190;BME280;49286;44.460;26.114;2024-02-16T00:14:52;101399.66;;;7.58;100.00
63190;BME280;49286;44.460;26.114;2024-02-16T00:17:18;101390.84;;;7.54;100.00
63190;BME280;49286;44.460;26.114;2024-02-16T00:19:43;101276.88;;;6.64;100.00
63190;BME280;49286;44.460;26.114;2024-02-16T00:22:09;101377.06;;;6.71;100.00
63190;BME280;49286;44.460;26.114;2024-02-16T00:24:34;101382.00;;;6.90;100.00
63190;BME280;49286;44.460;26.114;2024-02-16T00:27:02;101402.25;;;7.28;100.00
63190;BME280;49286;44.460;26.114;2024-02-16T00:29:31;101341.66;;;7.08;100.00
63190;BME280;49286;44.460;26.114;2024-02-16T00:31:57;101395.06;;;7.19;100.00
63190;BME280;49286;44.460;26.114;2024-02-16T00:34:24;101401.91;;;7.15;100.00
63190;BME280;49286;44.460;26.114;2024-02-16T00:36:50;101401.66;;;7.36;100.00
63190;BME280;49286;44.460;26.114;2024-02-16T00:39:17;101292.78;;;6.72;100.00
63190;BME280;49286;44.460;26.114;2024-02-16T00:41:43;101400.00;;;7.10;100.00
63190;BME280;49286;44.460;26.114;2024-02-16T00:44:08;101387.78;;;7.37;100.00
63190;BME280;49286;44.460;26.114;2024-02-16T00:46:35;101350.50;;;7.13;100.00
63190;BME280;49286;44.460;26.114;2024-02-16T00:49:01;101307.16;;;6.88;100.00
63190;BME280;49286;44.460;26.114;2024-02-16T00:51:27;101375.41;;;7.32;100.00
63190;BME280;49286;44.460;26.114;2024-02-16T00:53:52;101298.03;;;6.73;100.00
63190;BME280;49286;44.460;26.114;2024-02-16T00:56:18;101374.97;;;7.16;100.00
63190;BME280;49286;44.460;26.114;2024-02-16T00:58:44;101262.88;;;6.61;100.00
63190;BME280;49286;44.460;26.114;2024-02-16T01:01:10;101293.94;;;6.82;100.00
63190;BME280;49286;44.460;26.114;2024-02-16T01:03:38;101395.69;;;7.40;100.00
63190;BME280;49286;44.460;26.114;2024-02-16T01:06:05;101390.13;;;7.30;100.00
63190;BME280;49286;44.460;26.114;2024-02-16T01:08:31;101370.50;;;7.12;100.00
63190;BME280;49286;44.460;26.114;2024-02-16T01:10:57;101379.75;;;7.31;100.00
63190;BME280;49286;44.460;26.114;2024-02-16T01:13:22;101297.69;;;6.91;100.00
63190;BME280;49286;44.460;26.114;2024-02-16T01:15:48;101308.56;;;7.07;100.00
63190;BME280;49286;44.460;26.114;2024-02-16T01:18:13;101396.81;;;7.50;100.00
63190;BME280;49286;44.460;26.114;2024-02-16T01:20:39;101365.22;;;7.41;100.00
63190;BME280;49286;44.460;26.114;2024-02-16T01:23:04;101394.53;;;7.31;100.00
63190;BME280;49286;44.460;26.114;2024-02-16T01:25:33;101296.06;;;6.38;100.00
63190;BME280;49286;44.460;26.114;2024-02-16T01:27:58;101384.31;;;6.80;100.00
63190;BME280;49286;44.460;26.114;2024-02-16T01:30:24;101312.00;;;6.20;100.00
63190;BME280;49286;44.460;26.114;2024-02-16T01:32:50;101373.78;;;6.49;100.00
63190;BME280;49286;44.460;26.114;2024-02-16T01:35:16;101280.28;;;6.06;100.00
63190;BME280;49286;44.460;26.114;2024-02-16T01:37:41;101391.75;;;6.67;100.00
63190;BME280;49286;44.460;26.114;2024-02-16T01:40:09;101301.75;;;5.97;100.00
63190;BME280;49286;44.460;26.114;2024-02-16T01:42:40;101391.00;;;6.44;100.00
63190;BME280;49286;44.460;26.114;2024-02-16T01:45:06;101290.56;;;6.01;100.00
63190;BME280;49286;44.460;26.114;2024-02-16T01:47:34;101348.50;;;6.47;100.00
63190;BME280;49286;44.460;26.114;2024-02-16T01:50:00;101345.94;;;6.21;100.00
63190;BME280;49286;44.460;26.114;2024-02-16T01:52:28;101391.53;;;6.34;100.00
63190;BME280;49286;44.460;26.114;2024-02-16T01:54:53;101374.19;;;6.34;100.00
63190;BME280;49286;44.460;26.114;2024-02-16T01:57:19;101376.03;;;6.39;100.00
63190;BME280;49286;44.460;26.114;2024-02-16T01:59:45;101323.59;;;6.02;100.00
63190;BME280;49286;44.460;26.114;2024-02-16T02:02:10;101269.72;;;5.76;100.00
63190;BME280;49286;44.460;26.114;2024-02-16T02:04:37;101376.72;;;6.60;100.00
63190;BME280;49286;44.460;26.114;2024-02-16T02:07:25;101366.03;;;6.51;100.00
63190;BME280;49286;44.460;26.114;2024-02-16T02:09:51;101289.78;;;6.04;100.00
63190;BME280;49286;44.460;26.114;2024-02-16T02:12:16;101342.16;;;6.39;100.00
63190;BME280;49286;44.460;26.114;2024-02-16T02:14:43;101263.88;;;5.83;100.00
63190;BME280;49286;44.460;26.114;2024-02-16T02:17:09;101264.72;;;5.82;100.00
63190;BME280;49286;44.460;26.114;2024-02-16T02:19:35;101377.84;;;6.41;100.00
63190;BME280;49286;44.460;26.114;2024-02-16T02:22:01;101351.34;;;6.27;100.00
63190;BME280;49286;44.460;26.114;2024-02-16T02:24:27;101283.88;;;5.84;100.00
63190;BME280;49286;44.460;26.114;2024-02-16T02:26:52;101299.19;;;6.26;100.00
63190;BME280;49286;44.460;26.114;2024-02-16T02:29:18;101367.97;;;6.31;100.00
63190;BME280;49286;44.460;26.114;2024-02-16T02:31:43;101273.22;;;5.76;100.00
63190;BME280;49286;44.460;26.114;2024-02-16T02:34:09;101385.53;;;6.37;100.00
63190;BME280;49286;44.460;26.114;2024-02-16T02:36:35;101312.59;;;6.11;100.00
63190;BME280;49286;44.460;26.114;2024-02-16T02:39:01;101372.84;;;6.74;100.00
63190;BME280;49286;44.460;26.114;2024-02-16T02:41:27;101368.69;;;6.81;100.00
63190;BME280;49286;44.460;26.114;2024-02-16T02:43:52;101391.75;;;6.96;100.00
63190;BME280;49286;44.460;26.114;2024-02-16T02:46:18;101290.28;;;6.48;100.00
63190;BME280;49286;44.460;26.114;2024-02-16T02:48:45;101391.03;;;7.02;100.00
63190;BME280;49286;44.460;26.114;2024-02-16T02:51:10;101349.53;;;6.81;100.00
63190;BME280;49286;44.460;26.114;2024-02-16T02:53:36;101372.47;;;6.91;100.00
63190;BME280;49286;44.460;26.114;2024-02-16T02:56:02;101282.09;;;6.36;100.00
63190;BME280;49286;44.460;26.114;2024-02-16T02:58:28;101389.38;;;7.04;100.00
63190;BME280;49286;44.460;26.114;2024-02-16T03:00:54;101372.75;;;7.00;100.00
63190;BME280;49286;44.460;26.114;2024-02-16T03:03:23;101387.03;;;7.13;100.00
63190;BME280;49286;44.460;26.114;2024-02-16T03:05:49;101283.69;;;6.59;100.00
63190;BME280;49286;44.460;26.114;2024-02-16T03:08:15;101381.72;;;6.81;100.00
63190;BME280;49286;44.460;26.114;2024-02-16T03:10:40;101331.94;;;6.73;100.00
63190;BME280;49286;44.460;26.114;2024-02-16T03:13:06;101299.84;;;6.47;100.00
63190;BME280;49286;44.460;26.114;2024-02-16T03:15:38;101385.53;;;6.92;100.00
63190;BME280;49286;44.460;26.114;2024-02-16T03:18:05;101408.56;;;7.06;100.00
63190;BME280;49286;44.460;26.114;2024-02-16T03:20:34;101394.69;;;7.07;100.00
63190;BME280;49286;44.460;26.114;2024-02-16T03:22:59;101379.59;;;6.96;100.00
63190;BME280;49286;44.460;26.114;2024-02-16T03:25:25;101320.41;;;6.65;100.00
63190;BME280;49286;44.460;26.114;2024-02-16T03:27:51;101383.44;;;7.09;100.00
63190;BME280;49286;44.460;26.114;2024-02-16T03:30:19;101395.66;;;7.10;100.00
63190;BME280;49286;44.460;26.114;2024-02-16T03:32:51;101388.81;;;6.85;100.00
63190;BME280;49286;44.460;26.114;2024-02-16T03:35:18;101303.03;;;6.37;100.00
63190;BME280;49286;44.460;26.114;2024-02-16T03:37:44;101285.97;;;6.48;100.00
63190;BME280;49286;44.460;26.114;2024-02-16T03:40:10;101301.22;;;6.63;100.00
63190;BME280;49286;44.460;26.114;2024-02-16T03:42:38;101322.56;;;6.80;100.00
63190;BME280;49286;44.460;26.114;2024-02-16T03:45:05;101284.91;;;6.70;100.00
63190;BME280;49286;44.460;26.114;2024-02-16T03:47:30;101372.03;;;7.06;100.00
63190;BME280;49286;44.460;26.114;2024-02-16T03:49:56;101267.84;;;6.53;100.00
63190;BME280;49286;44.460;26.114;2024-02-16T03:52:21;101383.81;;;7.22;100.00
63190;BME280;49286;44.460;26.114;2024-02-16T03:54:47;101417.56;;;7.15;100.00
63190;BME280;49286;44.460;26.114;2024-02-16T03:57:15;101205.66;;;6.08;100.00
63190;BME280;49286;44.460;26.114;2024-02-16T03:59:45;101411.75;;;7.24;100.00
63190;BME280;49286;44.460;26.114;2024-02-16T04:02:11;101388.66;;;7.09;100.00
63190;BME280;49286;44.460;26.114;2024-02-16T04:04:38;101385.81;;;7.00;100.00
63190;BME280;49286;44.460;26.114;2024-02-16T04:07:04;101401.09;;;7.16;100.00
63190;BME280;49286;44.460;26.114;2024-02-16T04:09:32;101401.09;;;7.16;100.00
63190;BME280;49286;44.460;26.114;2024-02-16T04:11:58;101385.28;;;7.12;100.00
63190;BME280;49286;44.460;26.114;2024-02-16T04:14:24;101391.19;;;7.06;100.00
63190;BME280;49286;44.460;26.114;2024-02-16T04:16:49;101399.16;;;7.11;100.00
63190;BME280;49286;44.460;26.114;2024-02-16T04:19:15;101358.59;;;6.92;100.00
63190;BME280;49286;44.460;26.114;2024-02-16T04:21:40;101311.81;;;6.69;100.00
63190;BME280;49286;44.460;26.114;2024-02-16T04:24:06;101408.56;;;6.77;100.00
63190;BME280;49286;44.460;26.114;2024-02-16T04:26:32;101406.03;;;6.80;100.00
63190;BME280;49286;44.460;26.114;2024-02-16T04:28:57;101283.34;;;6.20;100.00
63190;BME280;49286;44.460;26.114;2024-02-16T04:31:23;101415.38;;;7.01;100.00
63190;BME280;49286;44.460;26.114;2024-02-16T04:33:48;101422.63;;;6.82;100.00
63190;BME280;49286;44.460;26.114;2024-02-16T04:36:14;101234.09;;;6.00;100.00
63190;BME280;49286;44.460;26.114;2024-02-16T04:38:40;101413.72;;;7.03;100.00
63190;BME280;49286;44.460;26.114;2024-02-16T04:41:08;101403.94;;;6.97;100.00
63190;BME280;49286;44.460;26.114;2024-02-16T04:43:34;101312.97;;;6.50;100.00
63190;BME280;49286;44.460;26.114;2024-02-16T04:46:00;101397.72;;;6.92;100.00
63190;BME280;49286;44.460;26.114;2024-02-16T04:48:26;101296.53;;;5.97;100.00
63190;BME280;49286;44.460;26.114;2024-02-16T04:50:51;101318.28;;;5.74;100.00
63190;BME280;49286;44.460;26.114;2024-02-16T04:53:17;101406.00;;;6.51;100.00
63190;BME280;49286;44.460;26.114;2024-02-16T04:55:43;101356.06;;;6.12;100.00
63190;BME280;49286;44.460;26.114;2024-02-16T04:58:08;101409.56;;;6.53;100.00
63190;BME280;49286;44.460;26.114;2024-02-16T05:00:37;101326.88;;;5.97;100.00
63190;BME280;49286;44.460;26.114;2024-02-16T05:03:03;101350.16;;;6.18;100.00
63190;BME280;49286;44.460;26.114;2024-02-16T05:05:29;101438.56;;;6.64;100.00
63190;BME280;49286;44.460;26.114;2024-02-16T05:07:56;101437.78;;;6.67;100.00
63190;BME280;49286;44.460;26.114;2024-02-16T05:10:22;101436.03;;;6.66;100.00
63190;BME280;49286;44.460;26.114;2024-02-16T05:12:48;101444.63;;;6.63;100.00
63190;BME280;49286;44.460;26.114;2024-02-16T05:15:13;101345.69;;;5.89;100.00
63190;BME280;49286;44.460;26.114;2024-02-16T05:17:40;101451.06;;;6.47;100.00
63190;BME280;49286;44.460;26.114;2024-02-16T05:20:13;101378.16;;;5.98;100.00
63190;BME280;49286;44.460;26.114;2024-02-16T05:22:45;101446.59;;;6.70;100.00
63190;BME280;49286;44.460;26.114;2024-02-16T05:25:15;101445.13;;;6.26;100.00
63190;BME280;49286;44.460;26.114;2024-02-16T05:27:41;101354.38;;;5.88;100.00
63190;BME280;49286;44.460;26.114;2024-02-16T05:30:09;101454.84;;;6.57;100.00
63190;BME280;49286;44.460;26.114;2024-02-16T05:32:36;101332.91;;;5.70;100.00
63190;BME280;49286;44.460;26.114;2024-02-16T05:35:06;101354.28;;;5.85;100.00
63190;BME280;49286;44.460;26.114;2024-02-16T05:37:39;101448.78;;;6.31;100.00
63190;BME280;49286;44.460;26.114;2024-02-16T05:40:08;101466.75;;;6.74;100.00
63190;BME280;49286;44.460;26.114;2024-02-16T05:42:45;101470.31;;;6.78;100.00
63190;BME280;49286;44.460;26.114;2024-02-16T05:45:11;101298.63;;;5.58;100.00
63190;BME280;49286;44.460;26.114;2024-02-16T05:47:36;101482.97;;;6.66;100.00
63190;BME280;49286;44.460;26.114;2024-02-16T05:50:04;101473.81;;;6.53;100.00
63190;BME280;49286;44.460;26.114;2024-02-16T05:52:30;101482.41;;;6.49;100.00
63190;BME280;49286;44.460;26.114;2024-02-16T05:54:56;101460.84;;;6.54;100.00
63190;BME280;49286;44.460;26.114;2024-02-16T05:57:21;101372.88;;;6.22;100.00
63190;BME280;49286;44.460;26.114;2024-02-16T05:59:47;101485.41;;;6.61;100.00
63190;BME280;49286;44.460;26.114;2024-02-16T06:02:12;101451.19;;;6.78;100.00
63190;BME280;49286;44.460;26.114;2024-02-16T06:04:39;101479.47;;;6.92;100.00
63190;BME280;49286;44.460;26.114;2024-02-16T06:07:05;101411.38;;;6.56;100.00
63190;BME280;49286;44.460;26.114;2024-02-16T06:09:31;101497.94;;;6.98;100.00
63190;BME280;49286;44.460;26.114;2024-02-16T06:12:04;101420.16;;;6.32;100.00
63190;BME280;49286;44.460;26.114;2024-02-16T06:14:31;101486.78;;;6.50;100.00
63190;BME280;49286;44.460;26.114;2024-02-16T06:16:58;101493.97;;;6.31;100.00
63190;BME280;49286;44.460;26.114;2024-02-16T06:19:25;101476.88;;;6.14;100.00
63190;BME280;49286;44.460;26.114;2024-02-16T06:21:50;101488.59;;;6.52;100.00
63190;BME280;49286;44.460;26.114;2024-02-16T06:24:16;101504.28;;;6.80;100.00
63190;BME280;49286;44.460;26.114;2024-02-16T06:26:42;101508.72;;;6.82;100.00
63190;BME280;49286;44.460;26.114;2024-02-16T06:29:08;101417.75;;;6.13;100.00
63190;BME280;49286;44.460;26.114;2024-02-16T06:31:34;101514.03;;;6.85;100.00
63190;BME280;49286;44.460;26.114;2024-02-16T06:33:59;101478.22;;;6.81;100.00
63190;BME280;49286;44.460;26.114;2024-02-16T06:36:25;101520.44;;;7.22;100.00
63190;BME280;49286;44.460;26.114;2024-02-16T06:38:51;101457.00;;;6.97;100.00
63190;BME280;49286;44.460;26.114;2024-02-16T06:41:17;101404.63;;;5.86;100.00
63190;BME280;49286;44.460;26.114;2024-02-16T06:43:42;101519.41;;;6.64;100.00
63190;BME280;49286;44.460;26.114;2024-02-16T06:46:08;101493.16;;;6.85;100.00
63190;BME280;49286;44.460;26.114;2024-02-16T06:48:34;101532.56;;;6.42;100.00
63190;BME280;49286;44.460;26.114;2024-02-16T06:50:59;101520.84;;;7.07;100.00
63190;BME280;49286;44.460;26.114;2024-02-16T06:53:25;101510.09;;;7.25;100.00
63190;BME280;49286;44.460;26.114;2024-02-16T06:55:50;101487.41;;;6.95;100.00
63190;BME280;49286;44.460;26.114;2024-02-16T06:58:16;101506.69;;;6.48;100.00
63190;BME280;49286;44.460;26.114;2024-02-16T07:00:42;101407.53;;;5.69;100.00
63190;BME280;49286;44.460;26.114;2024-02-16T07:03:08;101419.66;;;5.93;100.00
63190;BME280;49286;44.460;26.114;2024-02-16T07:05:35;101494.28;;;6.41;100.00
63190;BME280;49286;44.460;26.114;2024-02-16T07:08:00;101511.38;;;6.32;100.00
63190;BME280;49286;44.460;26.114;2024-02-16T07:10:27;101499.91;;;6.53;100.00
63190;BME280;49286;44.460;26.114;2024-02-16T07:12:52;101420.81;;;6.01;100.00
63190;BME280;49286;44.460;26.114;2024-02-16T07:15:18;101472.69;;;6.45;100.00
63190;BME280;49286;44.460;26.114;2024-02-16T07:17:44;101519.78;;;7.02;100.00
63190;BME280;49286;44.460;26.114;2024-02-16T07:20:10;101416.78;;;6.09;100.00
63190;BME280;49286;44.460;26.114;2024-02-16T07:22:36;101516.31;;;7.30;100.00
63190;BME280;49286;44.460;26.114;2024-02-16T07:25:03;101503.34;;;7.32;100.00
63190;BME280;49286;44.460;26.114;2024-02-16T07:27:30;101516.88;;;6.93;100.00
63190;BME280;49286;44.460;26.114;2024-02-16T07:29:55;101513.72;;;7.30;100.00
63190;BME280;49286;44.460;26.114;2024-02-16T07:32:21;101497.22;;;7.60;100.00
63190;BME280;49286;44.460;26.114;2024-02-16T07:34:47;101521.63;;;7.91;100.00
63190;BME280;49286;44.460;26.114;2024-02-16T07:37:13;101448.69;;;7.09;100.00
63190;BME280;49286;44.460;26.114;2024-02-16T07:39:39;101537.66;;;7.44;100.00
63190;BME280;49286;44.460;26.114;2024-02-16T07:42:06;101428.06;;;6.61;100.00
63190;BME280;49286;44.460;26.114;2024-02-16T07:44:35;101531.38;;;7.10;100.00
63190;BME280;49286;44.460;26.114;2024-02-16T07:47:01;101422.38;;;6.47;100.00
63190;BME280;49286;44.460;26.114;2024-02-16T07:49:27;101436.75;;;6.89;100.00
63190;BME280;49286;44.460;26.114;2024-02-16T07:51:53;101430.31;;;6.78;100.00
63190;BME280;49286;44.460;26.114;2024-02-16T07:54:18;101498.16;;;7.33;100.00
63190;BME280;49286;44.460;26.114;2024-02-16T07:56:44;101539.28;;;7.13;100.00
63190;BME280;49286;44.460;26.114;2024-02-16T07:59:10;101441.09;;;6.88;100.00
63190;BME280;49286;44.460;26.114;2024-02-16T08:01:35;101506.53;;;7.23;100.00
63190;BME280;49286;44.460;26.114;2024-02-16T08:04:01;101418.72;;;6.69;100.00
63190;BME280;49286;44.460;26.114;2024-02-16T08:06:26;101502.75;;;7.13;100.00
63190;BME280;49286;44.460;26.114;2024-02-16T08:08:53;101430.03;;;6.68;100.00
63190;BME280;49286;44.460;26.114;2024-02-16T08:11:19;101526.75;;;7.29;100.00
63190;BME280;49286;44.460;26.114;2024-02-16T08:13:45;101554.31;;;7.48;100.00
63190;BME280;49286;44.460;26.114;2024-02-16T08:16:11;101544.69;;;7.47;100.00
63190;BME280;49286;44.460;26.114;2024-02-16T08:18:37;101544.22;;;7.31;100.00
63190;BME280;49286;44.460;26.114;2024-02-16T08:21:02;101443.88;;;7.23;100.00
63190;BME280;49286;44.460;26.114;2024-02-16T08:23:29;101548.34;;;8.11;100.00
63190;BME280;49286;44.460;26.114;2024-02-16T08:25:56;101480.50;;;7.25;100.00
63190;BME280;49286;44.460;26.114;2024-02-16T08:28:22;101524.16;;;7.30;100.00
63190;BME280;49286;44.460;26.114;2024-02-16T08:30:48;101496.22;;;7.26;100.00
63190;BME280;49286;44.460;26.114;2024-02-16T08:33:13;101522.00;;;7.73;100.00
63190;BME280;49286;44.460;26.114;2024-02-16T08:35:39;101352.06;;;6.50;100.00
63190;BME280;49286;44.460;26.114;2024-02-16T08:38:05;101547.03;;;7.66;100.00
63190;BME280;49286;44.460;26.114;2024-02-16T08:40:30;101567.44;;;7.49;100.00
63190;BME280;49286;44.460;26.114;2024-02-16T08:42:56;101550.28;;;8.18;100.00
63190;BME280;49286;44.460;26.114;2024-02-16T08:45:22;101446.91;;;7.97;100.00
63190;BME280;49286;44.460;26.114;2024-02-16T08:47:48;101447.63;;;8.25;100.00
63190;BME280;49286;44.460;26.114;2024-02-16T08:50:15;101553.41;;;9.03;100.00
63190;BME280;49286;44.460;26.114;2024-02-16T08:52:40;101552.13;;;9.20;100.00
63190;BME280;49286;44.460;26.114;2024-02-16T08:55:06;101462.44;;;8.24;100.00
63190;BME280;49286;44.460;26.114;2024-02-16T08:57:33;101376.41;;;8.34;100.00
63190;BME280;49286;44.460;26.114;2024-02-16T08:59:59;101566.81;;;9.15;100.00
63190;BME280;49286;44.460;26.114;2024-02-16T09:02:24;101500.34;;;9.10;100.00
63190;BME280;49286;44.460;26.114;2024-02-16T09:04:50;101554.91;;;9.28;100.00
63190;BME280;49286;44.460;26.114;2024-02-16T09:07:15;101550.81;;;9.03;100.00
63190;BME280;49286;44.460;26.114;2024-02-16T09:09:41;101487.28;;;8.75;100.00
63190;BME280;49286;44.460;26.114;2024-02-16T09:12:07;101551.88;;;9.11;100.00
63190;BME280;49286;44.460;26.114;2024-02-16T09:14:32;101397.16;;;8.62;100.00
63190;BME280;49286;44.460;26.114;2024-02-16T09:16:58;101535.06;;;9.01;100.00
63190;BME280;49286;44.460;26.114;2024-02-16T09:19:23;101485.50;;;8.73;100.00
63190;BME280;49286;44.460;26.114;2024-02-16T09:21:49;101432.09;;;8.64;100.00
63190;BME280;49286;44.460;26.114;2024-02-16T09:24:17;101558.19;;;9.57;100.00
63190;BME280;49286;44.460;26.114;2024-02-16T09:26:44;101455.78;;;8.37;100.00
63190;BME280;49286;44.460;26.114;2024-02-16T09:29:15;101472.84;;;8.23;100.00
63190;BME280;49286;44.460;26.114;2024-02-16T09:31:41;101458.72;;;8.16;100.00
63190;BME280;49286;44.460;26.114;2024-02-16T09:34:08;101528.69;;;8.92;100.00
63190;BME280;49286;44.460;26.114;2024-02-16T09:36:34;101503.56;;;8.62;100.00
63190;BME280;49286;44.460;26.114;2024-02-16T09:39:02;101556.50;;;9.21;100.00
63190;BME280;49286;44.460;26.114;2024-02-16T09:41:28;101469.78;;;9.09;100.00
63190;BME280;49286;44.460;26.114;2024-02-16T09:43:54;101496.94;;;8.78;100.00
63190;BME280;49286;44.460;26.114;2024-02-16T09:46:21;101459.22;;;9.06;100.00
63190;BME280;49286;44.460;26.114;2024-02-16T09:48:47;101546.56;;;9.08;100.00
63190;BME280;49286;44.460;26.114;2024-02-16T09:51:18;101514.69;;;9.26;100.00
63190;BME280;49286;44.460;26.114;2024-02-16T09:53:51;101389.81;;;8.13;100.00
63190;BME280;49286;44.460;26.114;2024-02-16T09:56:21;101516.63;;;8.97;100.00
63190;BME280;49286;44.460;26.114;2024-02-16T09:58:47;101538.13;;;9.58;100.00
63190;BME280;49286;44.460;26.114;2024-02-16T10:01:19;101532.59;;;9.44;100.00
63190;BME280;49286;44.460;26.114;2024-02-16T10:03:49;101443.13;;;9.27;100.00
63190;BME280;49286;44.460;26.114;2024-02-16T10:06:15;101518.91;;;9.19;100.00
63190;BME280;49286;44.460;26.114;2024-02-16T10:08:54;101434.72;;;8.64;100.00
63190;BME280;49286;44.460;26.114;2024-02-16T10:11:23;101443.50;;;8.66;100.00
63190;BME280;49286;44.460;26.114;2024-02-16T10:13:57;101458.28;;;8.66;100.00
63190;BME280;49286;44.460;26.114;2024-02-16T10:16:23;101525.22;;;9.29;100.00
63190;BME280;49286;44.460;26.114;2024-02-16T10:18:48;101507.97;;;8.99;100.00
63190;BME280;49286;44.460;26.114;2024-02-16T10:21:24;101523.78;;;9.04;100.00
63190;BME280;49286;44.460;26.114;2024-02-16T10:24:20;101518.03;;;9.19;100.00
63190;BME280;49286;44.460;26.114;2024-02-16T10:26:46;101515.38;;;9.57;100.00
63190;BME280;49286;44.460;26.114;2024-02-16T10:29:14;101437.06;;;9.28;100.00
63190;BME280;49286;44.460;26.114;2024-02-16T10:31:42;101413.00;;;9.46;100.00
63190;BME280;49286;44.460;26.114;2024-02-16T10:34:09;101486.63;;;10.04;100.00
63190;BME280;49286;44.460;26.114;2024-02-16T10:36:36;101432.31;;;9.51;100.00
63190;BME280;49286;44.460;26.114;2024-02-16T10:39:03;101400.72;;;8.64;100.00
63190;BME280;49286;44.460;26.114;2024-02-16T10:41:35;101408.50;;;8.99;100.00
63190;BME280;49286;44.460;26.114;2024-02-16T10:44:02;101478.66;;;9.55;100.00
63190;BME280;49286;44.460;26.114;2024-02-16T10:46:29;101424.31;;;9.05;100.00
63190;BME280;49286;44.460;26.114;2024-02-16T10:48:55;101499.84;;;10.07;100.00
63190;BME280;49286;44.460;26.114;2024-02-16T10:51:31;101491.16;;;9.68;100.00
63190;BME280;49286;44.460;26.114;2024-02-16T10:54:00;101395.81;;;9.62;100.00
63190;BME280;49286;44.460;26.114;2024-02-16T10:56:36;101468.22;;;10.45;100.00
63190;BME280;49286;44.460;26.114;2024-02-16T10:59:07;101395.44;;;10.89;100.00
63190;BME280;49286;44.460;26.114;2024-02-16T11:01:43;101388.84;;;10.60;95.85
63190;BME280;49286;44.460;26.114;2024-02-16T11:04:11;101398.31;;;10.00;100.00
63190;BME280;49286;44.460;26.114;2024-02-16T11:06:52;101468.59;;;10.68;100.00
63190;BME280;49286;44.460;26.114;2024-02-16T11:09:29;101403.28;;;10.34;100.00
63190;BME280;49286;44.460;26.114;2024-02-16T11:11:58;101482.56;;;11.23;100.00
63190;BME280;49286;44.460;26.114;2024-02-16T11:14:35;101463.81;;;11.59;93.97
63190;BME280;49286;44.460;26.114;2024-02-16T11:17:13;101424.84;;;11.98;94.99
63190;BME280;49286;44.460;26.114;2024-02-16T11:19:43;101461.34;;;11.09;92.08
63190;BME280;49286;44.460;26.114;2024-02-16T11:22:10;101364.88;;;10.97;89.90
63190;BME280;49286;44.460;26.114;2024-02-16T11:24:48;101461.56;;;11.23;91.56
63190;BME280;49286;44.460;26.114;2024-02-16T11:27:15;101472.25;;;12.02;89.56
63190;BME280;49286;44.460;26.114;2024-02-16T11:29:44;101444.63;;;11.68;93.80
63190;BME280;49286;44.460;26.114;2024-02-16T11:32:10;101390.66;;;11.25;87.95
63190;BME280;49286;44.460;26.114;2024-02-16T11:34:36;101431.13;;;11.39;94.40
63190;BME280;49286;44.460;26.114;2024-02-16T11:37:03;101384.63;;;12.10;88.61
63190;BME280;49286;44.460;26.114;2024-02-16T11:39:30;101453.56;;;11.81;87.50
63190;BME280;49286;44.460;26.114;2024-02-16T11:42:07;101328.84;;;10.86;93.71
63190;BME280;49286;44.460;26.114;2024-02-16T11:44:38;101448.59;;;11.35;91.52
63190;BME280;49286;44.460;26.114;2024-02-16T11:47:08;101430.97;;;11.98;87.17
63190;BME280;49286;44.460;26.114;2024-02-16T11:49:38;101402.53;;;11.64;87.46
63190;BME280;49286;44.460;26.114;2024-02-16T11:52:05;101362.59;;;11.22;93.03
63190;BME280;49286;44.460;26.114;2024-02-16T11:54:30;101435.16;;;11.14;96.75
63190;BME280;49286;44.460;26.114;2024-02-16T11:56:56;101372.72;;;10.35;100.00
63190;BME280;49286;44.460;26.114;2024-02-16T11:59:22;101423.00;;;10.61;100.00
63190;BME280;49286;44.460;26.114;2024-02-16T12:01:56;101394.97;;;10.60;100.00
63190;BME280;49286;44.460;26.114;2024-02-16T12:04:23;101321.31;;;10.48;99.77
63190;BME280;49286;44.460;26.114;2024-02-16T12:07:01;101430.50;;;11.58;93.06
63190;BME280;49286;44.460;26.114;2024-02-16T12:09:27;101343.00;;;10.97;90.36
63190;BME280;49286;44.460;26.114;2024-02-16T12:11:54;101427.59;;;11.37;92.74
63190;BME280;49286;44.460;26.114;2024-02-16T12:14:23;101414.91;;;11.07;99.95
63190;BME280;49286;44.460;26.114;2024-02-16T12:16:52;101432.00;;;10.77;99.70
63190;BME280;49286;44.460;26.114;2024-02-16T12:19:21;101340.34;;;10.34;98.96
63190;BME280;49286;44.460;26.114;2024-02-16T12:21:57;101356.75;;;10.24;99.26
63190;BME280;49286;44.460;26.114;2024-02-16T12:24:24;101344.69;;;10.32;97.37
63190;BME280;49286;44.460;26.114;2024-02-16T12:26:50;101288.00;;;9.89;99.37
63190;BME280;49286;44.460;26.114;2024-02-16T12:29:16;101413.34;;;10.59;100.00
63190;BME280;49286;44.460;26.114;2024-02-16T12:31:46;101429.50;;;10.86;100.00
63190;BME280;49286;44.460;26.114;2024-02-16T12:34:13;101328.41;;;10.55;99.59
63190;BME280;49286;44.460;26.114;2024-02-16T12:36:39;101419.00;;;10.86;96.83
63190;BME280;49286;44.460;26.114;2024-02-16T12:39:06;101307.31;;;10.47;98.93